Time;durP1;ratioP1;P1;durP2;ratioP2;P2;SDS_P1;SDS_P2;PMS_P1;PMS_P2;Temp;Humidity;BMP_temperature;BMP_pressure;BME280_temperature;BME280_humidity;BME280_pressure;Samples;Min_cycle;Max_cycle;Signal;HPM_P1;HPM_P2
2022/08/07 00:01:52;;;;;;;0.50;0.50;;;;;;;18.39;44.36;102006.66;5146718;28;20069;-80
2022/08/07 00:04:22;;;;;;;0.32;0.32;;;;;;;18.36;45.02;102004.16;5155178;28;20498;-81
2022/08/07 00:06:53;;;;;;;0.28;0.28;;;;;;;18.32;45.21;102006.06;5138237;28;20746;-80
2022/08/07 00:09:23;;;;;;;0.30;0.30;;;;;;;18.29;44.74;101997.34;5156348;28;20445;-81
2022/08/07 00:11:54;;;;;;;0.30;0.30;;;;;;;18.27;45.11;102007.16;5154637;28;20121;-81
2022/08/07 00:14:29;;;;;;;0.30;0.30;;;;;;;18.22;45.00;102002.03;5174284;28;20034;-81
2022/08/07 00:17:01;;;;;;;0.60;0.60;;;;;;;18.20;45.25;101999.44;5175811;28;20034;-81
2022/08/07 00:19:32;;;;;;;0.30;0.30;;;;;;;18.17;45.88;102002.22;5146913;28;20041;-80
2022/08/07 00:22:02;;;;;;;1.08;0.88;;;;;;;18.16;45.50;101994.31;5179817;28;20034;-81
2022/08/07 00:24:33;;;;;;;1.58;0.90;;;;;;;18.13;45.30;101992.63;5164357;28;20065;-81
2022/08/07 00:27:04;;;;;;;0.75;0.60;;;;;;;18.09;45.33;101989.25;5173258;28;20497;-81
2022/08/07 00:29:37;;;;;;;0.40;0.40;;;;;;;18.08;46.02;101989.28;5163037;28;20475;-80
2022/08/07 00:32:11;;;;;;;0.40;0.40;;;;;;;18.04;46.00;101977.91;5163552;28;20041;-81
2022/08/07 00:34:41;;;;;;;2.72;0.80;;;;;;;18.03;44.91;101980.63;5152159;28;20438;-81
2022/08/07 00:37:12;;;;;;;0.35;0.35;;;;;;;18.02;45.67;101989.53;5130619;28;20046;-80
2022/08/07 00:39:42;;;;;;;0.40;0.40;;;;;;;17.99;45.82;101989.63;5190343;28;20037;-80
2022/08/07 00:42:13;;;;;;;0.20;0.20;;;;;;;17.98;45.12;101982.59;5161140;28;20070;-81
2022/08/07 00:44:43;;;;;;;0.55;0.52;;;;;;;17.96;45.77;101987.09;5157392;28;20034;-80
2022/08/07 00:47:14;;;;;;;0.73;0.73;;;;;;;17.96;45.13;101979.13;5167474;28;20129;-81
2022/08/07 00:49:44;;;;;;;3.17;1.38;;;;;;;17.90;45.16;101975.75;5173851;28;20023;-81
2022/08/07 00:52:15;;;;;;;0.30;0.30;;;;;;;17.87;44.73;101973.22;5160578;28;20050;-80
2022/08/07 00:54:47;;;;;;;0.63;0.50;;;;;;;17.86;45.77;101976.81;5144586;28;20512;-81
2022/08/07 00:57:18;;;;;;;0.43;0.43;;;;;;;17.84;45.46;101980.44;5175137;28;20046;-81
2022/08/07 00:59:49;;;;;;;0.32;0.32;;;;;;;17.85;43.69;101975.06;5137947;28;20449;-80
2022/08/07 01:02:22;;;;;;;0.50;0.50;;;;;;;17.77;45.18;101967.38;5171490;28;20128;-80
2022/08/07 01:04:53;;;;;;;;;;;;;;;17.76;45.16;101967.44;5186255;28;20038;-81
2022/08/07 01:07:24;;;;;;;0.30;0.30;;;;;;;17.71;45.72;101956.16;5163060;28;19918;-80
2022/08/07 01:09:55;;;;;;;0.55;0.40;;;;;;;17.68;46.33;101965.09;5179931;28;20533;-81
2022/08/07 01:12:26;;;;;;;0.95;0.82;;;;;;;17.66;46.42;101960.75;5176360;28;20129;-81
2022/08/07 01:14:58;;;;;;;0.75;0.75;;;;;;;17.64;45.57;101957.31;5170635;28;20676;-80
2022/08/07 01:17:30;;;;;;;0.32;0.32;;;;;;;17.65;45.51;101959.00;5204529;28;20511;-79
2022/08/07 01:20:08;;;;;;;0.40;0.40;;;;;;;17.62;45.60;101957.34;5163253;28;20090;-80
2022/08/07 01:22:40;;;;;;;0.32;0.32;;;;;;;17.57;45.90;101952.19;5150883;28;20037;-81
2022/08/07 01:25:11;;;;;;;1.23;0.75;;;;;;;17.55;45.98;101959.38;5158066;28;20407;-81
2022/08/07 01:27:42;;;;;;;0.20;0.20;;;;;;;17.53;45.88;101952.38;5175669;28;20667;-80
2022/08/07 01:30:12;;;;;;;0.30;0.30;;;;;;;17.51;46.41;101952.44;5186600;28;20037;-81
2022/08/07 01:32:43;;;;;;;0.50;0.50;;;;;;;17.46;46.79;101955.25;5179780;28;20517;-80
2022/08/07 01:35:14;;;;;;;0.43;0.43;;;;;;;17.44;47.29;101956.22;5190756;28;20095;-80
2022/08/07 01:37:45;;;;;;;0.50;0.50;;;;;;;17.45;46.59;101956.16;5155306;28;20026;-80
2022/08/07 01:40:19;;;;;;;0.40;0.40;;;;;;;17.42;47.79;101947.47;5160260;28;20141;-80
2022/08/07 01:42:50;;;;;;;1.20;0.50;;;;;;;17.40;46.66;101944.88;5171266;28;20095;-81
2022/08/07 01:45:21;;;;;;;0.50;0.50;;;;;;;17.37;47.01;101949.41;5170534;28;20084;-80
2022/08/07 01:47:51;;;;;;;0.20;0.20;;;;;;;17.36;47.34;101950.34;5192776;28;20044;-80
2022/08/07 01:50:24;;;;;;;0.50;0.50;;;;;;;17.34;46.94;101944.22;5162196;28;20052;-80
2022/08/07 01:52:57;;;;;;;0.43;0.40;;;;;;;17.32;47.16;101946.94;5178951;28;20518;-80
2022/08/07 01:55:38;;;;;;;0.40;0.40;;;;;;;17.27;47.30;101949.75;5171147;28;20041;-80
2022/08/07 01:58:14;;;;;;;0.43;0.43;;;;;;;17.24;48.31;101949.84;5189423;28;20037;-80
2022/08/07 02:00:50;;;;;;;0.30;0.30;;;;;;;17.23;47.82;101949.91;5170576;28;20036;-80
2022/08/07 02:03:22;;;;;;;0.20;0.20;;;;;;;17.21;47.14;101947.31;5155930;28;20034;-80
2022/08/07 02:06:06;;;;;;;0.30;0.30;;;;;;;17.18;48.10;101952.72;5183480;28;20050;-80
2022/08/07 02:08:40;;;;;;;0.50;0.50;;;;;;;17.17;47.27;101947.47;5176155;28;20567;-80
2022/08/07 02:11:11;;;;;;;0.20;0.20;;;;;;;17.13;47.87;101946.72;5171442;28;20080;-80
2022/08/07 02:13:44;;;;;;;0.40;0.40;;;;;;;17.11;47.15;101946.75;5158740;28;20054;-80
2022/08/07 02:16:16;;;;;;;;;;;;;;;17.09;48.53;101948.63;5172098;28;20072;-80
2022/08/07 02:18:49;;;;;;;0.70;0.70;;;;;;;17.06;47.65;101947.88;5168985;28;19940;-80
2022/08/07 02:21:20;;;;;;;0.50;0.50;;;;;;;17.03;48.54;101950.63;5161292;28;20563;-80
2022/08/07 02:23:52;;;;;;;0.73;0.73;;;;;;;17.01;48.47;101948.03;5189179;28;20276;-80
2022/08/07 02:26:22;;;;;;;1.23;1.13;;;;;;;16.97;47.38;101947.25;5172942;28;20101;-80
2022/08/07 02:28:56;;;;;;;0.30;0.30;;;;;;;16.96;47.67;101942.88;5183066;28;20494;-80
2022/08/07 02:31:27;;;;;;;0.75;0.75;;;;;;;16.93;48.20;101942.97;5173777;28;20073;-81
2022/08/07 02:33:59;;;;;;;0.40;0.40;;;;;;;16.92;47.77;101943.00;5142099;28;20711;-81
2022/08/07 02:36:31;;;;;;;0.80;0.75;;;;;;;16.89;47.17;101943.97;5152255;28;20045;-80
2022/08/07 02:39:04;;;;;;;0.30;0.30;;;;;;;16.87;47.84;101944.94;5152935;28;20166;-80
2022/08/07 02:41:35;;;;;;;1.30;0.93;;;;;;;16.82;48.43;101945.97;5163027;28;20867;-80
2022/08/07 02:44:06;;;;;;;0.30;0.30;;;;;;;16.80;48.39;101947.78;5166323;28;20037;-81
2022/08/07 02:46:37;;;;;;;0.45;0.45;;;;;;;16.77;48.82;101939.09;5151098;28;20046;-80
2022/08/07 02:49:08;;;;;;;0.32;0.32;;;;;;;16.73;48.66;101935.66;5171415;28;20718;-81
2022/08/07 02:51:41;;;;;;;0.30;0.30;;;;;;;16.71;48.67;101939.28;5162784;28;20073;-80
2022/08/07 02:54:16;;;;;;;;;;;;;;;16.68;49.12;101935.81;5165200;28;20031;-81
2022/08/07 02:56:48;;;;;;;0.60;0.60;;;;;;;16.64;49.07;101931.56;5169332;28;19921;-81
2022/08/07 02:59:23;;;;;;;0.22;0.22;;;;;;;16.61;49.32;101936.94;5183125;28;20564;-81
2022/08/07 03:01:55;;;;;;;0.30;0.30;;;;;;;16.60;48.56;101935.22;5191670;28;20117;-80
2022/08/07 03:04:27;;;;;;;1.63;0.93;;;;;;;16.57;49.06;101932.66;5158735;28;20061;-83
2022/08/07 03:07:00;;;;;;;0.20;0.20;;;;;;;16.55;49.28;101934.50;5143808;28;20038;-80
2022/08/07 03:09:38;;;;;;;0.57;0.57;;;;;;;16.51;49.04;101933.75;5162847;28;20042;-80
2022/08/07 03:12:31;;;;;;;0.17;0.17;;;;;;;16.47;49.71;101936.53;5170312;28;20033;-80
2022/08/07 03:15:06;;;;;;;0.47;0.47;;;;;;;16.45;49.35;101936.56;5165158;28;20030;-81
2022/08/07 03:17:37;;;;;;;0.43;0.43;;;;;;;16.44;49.30;101936.63;5159232;28;20113;-81
2022/08/07 03:20:09;;;;;;;0.90;0.90;;;;;;;16.41;48.70;101942.00;5195570;28;20045;-79
2022/08/07 03:22:41;;;;;;;0.40;0.40;;;;;;;16.39;49.35;101938.56;5211755;28;20053;-79
2022/08/07 03:25:11;;;;;;;0.52;0.52;;;;;;;16.35;49.33;101928.06;5172655;28;20026;-79
2022/08/07 03:27:42;;;;;;;0.93;0.93;;;;;;;16.32;49.42;101922.84;5155220;28;20037;-79
2022/08/07 03:30:14;;;;;;;0.73;0.73;;;;;;;16.30;49.63;101932.66;5179515;28;20038;-80
2022/08/07 03:32:47;;;;;;;0.30;0.30;;;;;;;16.29;49.61;101930.03;5183768;28;20044;-80
2022/08/07 03:35:24;;;;;;;0.28;0.28;;;;;;;16.25;50.08;101928.41;5175606;28;20104;-80
2022/08/07 03:38:00;;;;;;;0.82;0.82;;;;;;;16.23;50.32;101925.81;5155931;28;20491;-79
2022/08/07 03:40:31;;;;;;;0.20;0.20;;;;;;;16.20;49.74;101923.25;5158529;28;20045;-79
2022/08/07 03:43:02;;;;;;;0.50;0.50;;;;;;;16.18;50.44;101928.63;5177246;28;20026;-79
2022/08/07 03:45:34;;;;;;;0.40;0.40;;;;;;;16.16;50.00;101932.19;5173637;28;20565;-79
2022/08/07 03:48:05;;;;;;;0.45;0.45;;;;;;;16.15;49.61;101930.50;5178077;28;20093;-79
2022/08/07 03:50:37;;;;;;;0.38;0.38;;;;;;;16.12;50.07;101925.28;5190570;28;20081;-79
2022/08/07 03:53:09;;;;;;;0.30;0.30;;;;;;;16.09;50.36;101922.72;5136658;28;20687;-79
2022/08/07 03:55:41;;;;;;;2.00;1.38;;;;;;;16.07;49.89;101921.91;5150669;28;20049;-80
2022/08/07 03:58:12;;;;;;;0.47;0.47;;;;;;;16.03;49.57;101913.22;5158411;28;20466;-79
2022/08/07 04:00:45;;;;;;;0.55;0.55;;;;;;;16.01;50.27;101923.81;5172618;28;20053;-81
2022/08/07 04:03:17;;;;;;;0.68;0.68;;;;;;;15.98;50.28;101923.94;5141600;28;20030;-79
2022/08/07 04:05:48;;;;;;;0.47;0.47;;;;;;;15.95;50.68;101923.16;5150217;28;20046;-80
2022/08/07 04:08:19;;;;;;;0.30;0.30;;;;;;;15.94;49.77;101919.63;5202891;28;20044;-78
2022/08/07 04:10:51;;;;;;;0.40;0.40;;;;;;;15.92;50.01;101928.53;5168366;28;20217;-78
2022/08/07 04:13:22;;;;;;;0.40;0.40;;;;;;;15.89;49.66;101925.06;5161061;28;20053;-79
2022/08/07 04:15:53;;;;;;;0.32;0.32;;;;;;;15.87;49.48;101920.75;5194186;28;20034;-79
2022/08/07 04:18:24;;;;;;;0.30;0.30;;;;;;;15.88;48.13;101925.13;5190975;28;20068;-79
2022/08/07 04:20:54;;;;;;;0.65;0.50;;;;;;;15.87;48.06;101923.38;5158838;28;20146;-79
2022/08/07 04:23:26;;;;;;;0.40;0.40;;;;;;;15.83;48.05;101924.34;5172049;28;20061;-79
2022/08/07 04:25:57;;;;;;;0.57;0.57;;;;;;;15.80;49.16;101921.81;5160516;28;20053;-79
2022/08/07 04:28:27;;;;;;;0.20;0.20;;;;;;;15.72;49.77;101924.66;5150274;28;20034;-79
2022/08/07 04:30:58;;;;;;;0.60;0.60;;;;;;;15.67;50.63;101935.38;5166489;28;20670;-78
2022/08/07 04:33:29;;;;;;;0.65;0.50;;;;;;;15.66;50.81;101944.22;5178194;28;20040;-78
2022/08/07 04:36:01;;;;;;;0.38;0.38;;;;;;;15.64;50.76;101940.78;5160752;28;20038;-78
2022/08/07 04:38:31;;;;;;;0.80;0.57;;;;;;;15.63;49.51;101946.97;5169744;28;20117;-78
2022/08/07 04:41:04;;;;;;;0.45;0.45;;;;;;;15.62;50.39;101947.03;5178777;28;20188;-78
2022/08/07 04:43:37;;;;;;;1.55;0.82;;;;;;;15.60;51.47;101939.13;5150112;28;20032;-78
2022/08/07 04:46:17;;;;;;;0.70;0.70;;;;;;;15.57;50.89;101942.72;5172138;28;20050;-78
2022/08/07 04:48:50;;;;;;;0.82;0.80;;;;;;;15.59;48.97;101945.31;5151460;28;20103;-78
2022/08/07 04:51:26;;;;;;;;;;;;;;;15.64;48.70;101934.59;5164734;28;20394;-78
2022/08/07 04:54:22;;;;;;;0.68;0.50;;;;;;;15.60;48.55;101928.53;5173925;28;19909;-78
2022/08/07 04:56:58;;;;;;;1.05;1.05;;;;;;;15.56;48.73;101932.19;5177158;28;20049;-78
2022/08/07 04:59:35;;;;;;;0.73;0.73;;;;;;;15.52;49.27;101934.06;5163632;28;20033;-78
2022/08/07 05:02:25;;;;;;;0.70;0.60;;;;;;;15.53;48.96;101940.22;5185439;28;20047;-78
2022/08/07 05:05:08;;;;;;;0.40;0.40;;;;;;;15.51;48.80;101936.75;5209831;28;20025;-78
2022/08/07 05:07:54;;;;;;;0.50;0.50;;;;;;;15.47;49.69;101945.69;5168201;28;20046;-78
2022/08/07 05:10:30;;;;;;;0.40;0.40;;;;;;;15.43;49.85;101936.97;5168805;28;20053;-78
2022/08/07 05:13:15;;;;;;;1.35;0.57;;;;;;;15.42;50.44;101948.47;5172077;28;20068;-79
2022/08/07 05:15:50;;;;;;;0.40;0.40;;;;;;;15.40;51.37;101948.50;5174866;28;20030;-79
2022/08/07 05:18:29;;;;;;;0.30;0.30;;;;;;;15.39;50.88;101946.78;5153424;28;20034;-79
2022/08/07 05:21:03;;;;;;;0.55;0.55;;;;;;;15.39;50.92;101952.06;5165158;28;20698;-79
2022/08/07 05:23:40;;;;;;;0.43;0.43;;;;;;;15.41;51.39;101952.00;5144209;28;20037;-79
2022/08/07 05:26:16;;;;;;;0.40;0.40;;;;;;;15.40;51.18;101953.81;5153279;28;20417;-79
2022/08/07 05:28:49;;;;;;;1.10;0.57;;;;;;;15.42;50.80;101951.94;5176609;28;20052;-80
2022/08/07 05:31:26;;;;;;;1.38;1.00;;;;;;;15.43;50.10;101956.34;5104267;28;20038;-80
2022/08/07 05:33:58;;;;;;;0.20;0.20;;;;;;;15.47;49.57;101953.63;5182124;28;20036;-79
2022/08/07 05:36:30;;;;;;;2.25;1.23;;;;;;;15.47;50.97;101957.13;5142419;28;20729;-79
2022/08/07 05:39:03;;;;;;;0.30;0.30;;;;;;;15.47;50.30;101965.06;5181407;28;20033;-79
2022/08/07 05:41:42;;;;;;;0.70;0.55;;;;;;;15.47;50.92;101962.41;5178689;28;20037;-80
2022/08/07 05:44:12;;;;;;;1.00;1.00;;;;;;;15.50;50.29;101967.63;5176820;28;20037;-79
2022/08/07 05:46:45;;;;;;;0.68;0.68;;;;;;;15.53;50.26;101964.03;5158999;28;21004;-78
2022/08/07 05:49:16;;;;;;;0.77;0.75;;;;;;;15.53;50.79;101975.47;5168760;28;20030;-81
2022/08/07 05:51:47;;;;;;;0.52;0.52;;;;;;;15.56;50.75;101974.53;5161573;28;20049;-79
2022/08/07 05:54:18;;;;;;;0.43;0.43;;;;;;;15.57;51.45;101965.69;5171555;28;20041;-80
2022/08/07 05:56:49;;;;;;;0.93;0.93;;;;;;;15.60;51.95;101975.31;5155205;28;20049;-79
2022/08/07 05:59:21;;;;;;;0.65;0.65;;;;;;;15.61;50.85;101971.75;5190726;28;20087;-80
2022/08/07 06:01:53;;;;;;;0.35;0.35;;;;;;;15.62;52.54;101970.84;5156001;28;20649;-80
2022/08/07 06:04:24;;;;;;;0.50;0.50;;;;;;;15.66;50.90;101970.69;5185630;28;20045;-79
2022/08/07 06:06:56;;;;;;;0.30;0.30;;;;;;;15.70;51.15;101985.59;5158340;28;20779;-80
2022/08/07 06:09:27;;;;;;;0.25;0.25;;;;;;;15.74;50.95;101981.91;5184088;28;20030;-80
2022/08/07 06:11:59;;;;;;;0.55;0.55;;;;;;;15.74;51.50;101989.00;5167363;28;20053;-79
2022/08/07 06:14:31;;;;;;;0.50;0.50;;;;;;;15.74;51.82;101973.97;5160061;28;20129;-78
2022/08/07 06:17:02;;;;;;;1.33;0.77;;;;;;;15.78;51.09;101984.50;5201311;28;20038;-78
2022/08/07 06:19:34;;;;;;;0.20;0.20;;;;;;;15.83;50.70;101985.22;5179848;28;20552;-79
2022/08/07 06:22:07;;;;;;;0.60;0.60;;;;;;;15.85;51.44;101980.78;5179159;28;20061;-79
2022/08/07 06:24:40;;;;;;;0.45;0.45;;;;;;;15.88;50.73;101983.34;5154608;28;20486;-77
2022/08/07 06:27:20;;;;;;;0.57;0.57;;;;;;;15.90;53.34;101978.88;5148936;28;20077;-79
2022/08/07 06:29:51;;;;;;;0.68;0.68;;;;;;;15.86;53.41;101977.22;5137565;28;20041;-78
2022/08/07 06:32:22;;;;;;;0.30;0.30;;;;;;;15.94;51.92;101980.50;5182166;28;20045;-78
2022/08/07 06:34:52;;;;;;;0.75;0.75;;;;;;;15.97;51.77;101974.25;5169057;28;20099;-78
2022/08/07 06:37:23;;;;;;;0.20;0.20;;;;;;;16.03;51.16;101974.09;5161708;28;20045;-78
2022/08/07 06:39:54;;;;;;;1.52;0.38;;;;;;;16.07;51.16;101982.81;5162012;28;20116;-80
2022/08/07 06:42:36;;;;;;;0.60;0.60;;;;;;;16.12;51.53;101978.22;5182879;28;20622;-79
2022/08/07 06:45:16;;;;;;;0.40;0.40;;;;;;;16.12;51.39;101972.94;5170415;28;20026;-79
2022/08/07 06:47:47;;;;;;;0.50;0.50;;;;;;;16.17;51.54;101965.72;5181391;28;20036;-79
2022/08/07 06:50:18;;;;;;;0.93;0.93;;;;;;;16.18;51.30;101959.50;5162860;28;20025;-78
2022/08/07 06:52:54;;;;;;;0.57;0.57;;;;;;;16.23;51.39;101962.00;5170492;28;20042;-80
2022/08/07 06:55:30;;;;;;;0.55;0.55;;;;;;;16.28;52.04;101966.25;5175537;28;20026;-81
2022/08/07 06:58:10;;;;;;;0.50;0.50;;;;;;;16.27;52.60;101961.00;5179768;28;20106;-80
2022/08/07 07:00:43;;;;;;;0.63;0.63;;;;;;;16.31;52.39;101957.34;5154517;28;20053;-79
2022/08/07 07:03:14;;;;;;;0.47;0.47;;;;;;;16.38;51.57;101968.63;5146297;28;20073;-79
2022/08/07 07:05:45;;;;;;;0.70;0.65;;;;;;;16.42;51.60;101959.63;5172712;28;20152;-79
2022/08/07 07:08:16;;;;;;;0.40;0.40;;;;;;;16.44;51.45;101957.81;5154547;28;20103;-79
2022/08/07 07:10:47;;;;;;;0.77;0.63;;;;;;;16.44;51.65;101957.81;5160992;28;20049;-79
2022/08/07 07:13:23;;;;;;;0.22;0.22;;;;;;;16.48;52.09;101964.78;5156253;28;20053;-80
2022/08/07 07:16:06;;;;;;;1.13;0.82;;;;;;;16.53;52.11;101957.53;5150012;28;20137;-81
2022/08/07 07:18:45;;;;;;;0.52;0.52;;;;;;;16.58;51.30;101960.88;5158796;28;20473;-81
2022/08/07 07:21:21;;;;;;;0.35;0.35;;;;;;;16.61;51.45;101960.78;5172014;28;20053;-80
2022/08/07 07:23:51;;;;;;;1.13;1.02;;;;;;;16.66;50.98;101964.16;5182287;28;20037;-80
2022/08/07 07:26:22;;;;;;;0.50;0.50;;;;;;;16.68;51.13;101962.31;5170941;28;20510;-80
2022/08/07 07:29:02;;;;;;;0.50;0.50;;;;;;;16.74;51.29;101965.66;5172239;28;20095;-80
2022/08/07 07:31:39;;;;;;;0.38;0.38;;;;;;;16.77;51.12;101963.81;5173579;28;20045;-80
2022/08/07 07:34:17;;;;;;;2.22;1.63;;;;;;;16.80;51.14;101957.53;5191604;28;20061;-79
2022/08/07 07:36:48;;;;;;;0.30;0.30;;;;;;;16.79;51.45;101958.47;5198520;28;20518;-80
2022/08/07 07:39:21;;;;;;;0.30;0.30;;;;;;;16.85;51.32;101958.25;5182665;28;20041;-82
2022/08/07 07:41:55;;;;;;;0.28;0.28;;;;;;;16.87;51.36;101956.41;5199588;28;20045;-80
2022/08/07 07:44:28;;;;;;;0.20;0.20;;;;;;;16.91;51.35;101958.03;5190724;28;20494;-80
2022/08/07 07:47:00;;;;;;;0.82;0.68;;;;;;;16.99;51.17;101953.34;5196291;28;20100;-79
2022/08/07 07:49:36;;;;;;;0.28;0.28;;;;;;;16.96;51.16;101950.84;5175455;28;20037;-81
2022/08/07 07:52:09;;;;;;;0.40;0.40;;;;;;;17.05;50.99;101954.09;5170147;28;20037;-80
2022/08/07 07:54:44;;;;;;;0.50;0.50;;;;;;;17.12;50.69;101958.25;5164340;28;20033;-82
2022/08/07 07:57:21;;;;;;;1.98;1.27;;;;;;;17.09;50.74;101947.75;5175380;28;20393;-80
2022/08/07 07:59:54;;;;;;;0.85;0.82;;;;;;;17.19;50.61;101946.50;5178615;28;20040;-81
2022/08/07 08:02:27;;;;;;;0.50;0.50;;;;;;;17.19;50.44;101948.31;5180330;28;20073;-81
2022/08/07 08:05:03;;;;;;;0.20;0.20;;;;;;;17.19;50.67;101950.97;5196813;28;20032;-79
2022/08/07 08:07:35;;;;;;;0.60;0.55;;;;;;;17.32;50.18;101949.59;5189650;28;20113;-81
2022/08/07 08:10:07;;;;;;;0.63;0.63;;;;;;;17.41;50.29;101946.59;5158566;28;20095;-80
2022/08/07 08:12:39;;;;;;;0.20;0.20;;;;;;;17.38;50.37;101946.69;5150739;28;20512;-80
2022/08/07 08:15:11;;;;;;;0.40;0.40;;;;;;;17.37;50.47;101938.81;5192734;28;20423;-80
2022/08/07 08:17:43;;;;;;;0.22;0.22;;;;;;;17.36;50.11;101935.28;5156655;28;20077;-79
2022/08/07 08:20:16;;;;;;;0.50;0.50;;;;;;;17.40;49.71;101938.69;5162530;28;20045;-81
2022/08/07 08:28:29;;;;;;;0.22;0.22;;;;;;;17.64;49.31;101930.75;5191685;28;20120;-80
2022/08/07 08:31:02;;;;;;;0.95;0.85;;;;;;;17.64;48.87;101930.75;5189432;28;20041;-79
2022/08/07 08:33:35;;;;;;;0.20;0.20;;;;;;;17.71;48.25;101932.25;5210196;28;20093;-80
2022/08/07 08:36:11;;;;;;;0.20;0.20;;;;;;;17.73;47.99;101928.63;5134188;28;20040;-79
2022/08/07 08:38:45;;;;;;;0.28;0.28;;;;;;;17.79;47.94;101927.53;5170444;28;20038;-79
2022/08/07 08:41:18;;;;;;;;;;;;;;;17.83;47.79;101926.47;5163828;28;20163;-80
2022/08/07 08:43:49;;;;;;;0.20;0.20;;;;;;;17.90;47.25;101922.63;5165155;28;19913;-79
2022/08/07 08:46:31;;;;;;;0.30;0.30;;;;;;;17.98;47.37;101918.84;5174355;28;20045;-78
2022/08/07 08:49:39;;;;;;;0.30;0.30;;;;;;;17.99;46.68;101917.94;5183977;28;20840;-79
2022/08/07 08:52:21;;;;;;;0.30;0.30;;;;;;;17.99;46.60;101924.13;5180198;28;20042;-81
2022/08/07 08:55:00;;;;;;;0.20;0.20;;;;;;;17.96;45.75;101924.22;5188956;28;20120;-82
2022/08/07 08:57:46;;;;;;;0.20;0.20;;;;;;;18.11;46.48;101921.88;5157582;28;20072;-81
2022/08/07 09:00:19;;;;;;;0.30;0.30;;;;;;;18.09;46.40;101919.31;5122025;28;20621;-81
2022/08/07 09:03:03;;;;;;;0.20;0.20;;;;;;;18.17;45.23;101914.56;5162038;28;20045;-82
2022/08/07 09:05:52;;;;;;;2.22;0.30;;;;;;;18.40;45.34;101910.97;5173910;28;20045;-80
2022/08/07 09:08:37;;;;;;;0.38;0.38;;;;;;;18.33;45.37;101908.63;5162406;28;20526;-81
2022/08/07 09:11:23;;;;;;;0.20;0.20;;;;;;;18.26;45.73;101902.72;5171720;28;20268;-81
2022/08/07 09:14:09;;;;;;;0.20;0.20;;;;;;;18.35;45.98;101902.31;5158658;28;20454;-79
2022/08/07 09:16:39;;;;;;;0.30;0.30;;;;;;;18.42;45.26;101902.06;5166014;28;20075;-80
2022/08/07 09:19:47;;;;;;;0.22;0.22;;;;;;;18.54;44.78;101899.78;5175137;28;20044;-80
2022/08/07 09:22:36;;;;;;;0.63;0.63;;;;;;;18.82;44.04;101895.91;5189427;28;20549;-80
2022/08/07 09:25:23;;;;;;;0.20;0.20;;;;;;;18.67;44.78;101900.13;5172558;28;20063;-81
2022/08/07 09:28:10;;;;;;;0.20;0.20;;;;;;;18.78;44.91;101894.34;5196756;28;20043;-80
2022/08/07 09:31:04;;;;;;;0.57;0.57;;;;;;;18.78;44.31;101898.78;5180506;28;20038;-81
2022/08/07 09:34:06;;;;;;;0.20;0.20;;;;;;;18.87;44.23;101893.06;5182721;28;20180;-81
2022/08/07 09:36:51;;;;;;;0.40;0.40;;;;;;;18.85;43.51;101893.13;5155391;28;20040;-80
2022/08/07 09:39:33;;;;;;;0.30;0.30;;;;;;;18.95;43.63;101890.13;5163340;28;20037;-80
2022/08/07 09:42:47;;;;;;;0.20;0.20;;;;;;;19.07;43.81;101891.38;5167693;28;20042;-80
2022/08/07 09:45:36;;;;;;;0.30;0.30;;;;;;;19.07;43.34;101889.56;5163816;28;20057;-81
2022/08/07 09:48:32;;;;;;;0.30;0.30;;;;;;;19.09;42.80;101887.69;5167947;28;20585;-82
2022/08/07 09:51:30;;;;;;;0.20;0.20;;;;;;;19.21;41.96;101877.47;5171582;28;20045;-81
2022/08/07 09:54:07;;;;;;;0.30;0.30;;;;;;;19.25;41.01;101873.72;5160657;28;20033;-80
2022/08/07 09:57:18;;;;;;;0.20;0.20;;;;;;;19.38;41.06;101872.19;5170688;28;20044;-80
2022/08/07 09:59:49;;;;;;;0.20;0.20;;;;;;;19.38;40.96;101866.88;5170788;28;20314;-81
2022/08/07 10:02:42;;;;;;;0.20;0.20;;;;;;;19.48;41.57;101868.19;5158462;28;20037;-81
2022/08/07 10:05:37;;;;;;;0.40;0.40;;;;;;;19.52;41.55;101865.41;5202810;28;20486;-80
2022/08/07 10:08:31;;;;;;;0.20;0.20;;;;;;;19.62;39.52;101853.38;5159803;28;20128;-82
2022/08/07 10:11:01;;;;;;;;;;;;;;;19.62;40.94;101859.56;5180867;28;20036;-81
2022/08/07 10:13:39;;;;;;;0.20;0.20;;;;;;;19.64;39.69;101863.03;5183861;28;20141;-77
2022/08/07 10:16:20;;;;;;;0.43;0.43;;;;;;;19.70;40.40;101851.22;5152688;28;20034;-79
2022/08/07 10:19:16;;;;;;;0.50;0.50;;;;;;;19.83;40.79;101856.81;5152203;28;20034;-78
2022/08/07 10:22:21;;;;;;;0.20;0.20;;;;;;;19.91;40.50;101843.16;5167624;28;20136;-80
2022/08/07 10:25:13;;;;;;;0.20;0.20;;;;;;;19.94;40.68;101848.34;5178800;28;20033;-82
2022/08/07 10:28:02;;;;;;;0.20;0.20;;;;;;;20.16;40.59;101848.16;5145110;28;20051;-79
2022/08/07 10:30:55;;;;;;;0.30;0.30;;;;;;;20.26;39.46;101838.72;5152136;28;20376;-80
2022/08/07 10:33:53;;;;;;;0.20;0.20;;;;;;;20.22;38.78;101841.63;5165720;28;20716;-81
2022/08/07 10:36:40;;;;;;;0.30;0.30;;;;;;;20.25;39.86;101842.34;5174881;28;20470;-82
2022/08/07 10:39:42;;;;;;;0.20;0.20;;;;;;;20.35;40.14;101845.41;5199380;28;20067;-80
2022/08/07 10:42:34;;;;;;;0.20;0.20;;;;;;;20.45;40.24;101833.31;5164515;28;20045;-80
2022/08/07 10:45:16;;;;;;;0.20;0.20;;;;;;;20.44;39.42;101836.97;5156793;28;20133;-80
2022/08/07 10:48:15;;;;;;;0.30;0.30;;;;;;;20.52;38.57;101825.03;5140746;28;20041;-81
2022/08/07 10:50:51;;;;;;;2.53;1.27;;;;;;;20.54;39.21;101824.00;5168910;28;20054;-80
2022/08/07 10:53:40;;;;;;;0.40;0.40;;;;;;;20.55;39.41;101809.75;5159365;28;20034;-81
2022/08/07 10:56:26;;;;;;;0.32;0.32;;;;;;;20.75;39.68;101814.06;5160945;28;20065;-81
2022/08/07 10:59:24;;;;;;;0.20;0.20;;;;;;;20.74;39.89;101807.00;5173970;28;20048;-79
2022/08/07 11:02:24;;;;;;;0.20;0.20;;;;;;;20.86;38.25;101810.81;5162516;28;20037;-79
2022/08/07 11:05:34;;;;;;;0.20;0.20;;;;;;;20.86;38.82;101809.97;5188447;28;20194;-81
2022/08/07 11:08:23;;;;;;;0.32;0.32;;;;;;;21.01;38.49;101810.94;5173404;28;20138;-81
2022/08/07 11:11:16;;;;;;;1.00;0.32;;;;;;;21.12;38.95;101810.34;5198749;28;20679;-78
2022/08/07 11:13:54;;;;;;;;;;;;;;;21.26;38.11;101805.13;5177350;28;20033;-79
2022/08/07 11:16:49;;;;;;;0.25;0.25;;;;;;;21.21;37.90;101805.38;5202151;28;19972;-78
2022/08/07 11:19:47;;;;;;;0.20;0.20;;;;;;;21.22;38.66;101796.44;5172746;28;20045;-78
2022/08/07 11:22:33;;;;;;;0.22;0.22;;;;;;;21.31;38.10;101789.72;5190137;28;20079;-78
2022/08/07 11:25:36;;;;;;;0.20;0.20;;;;;;;21.42;38.24;101785.59;5196021;28;20072;-77
2022/08/07 11:28:15;;;;;;;0.20;0.20;;;;;;;21.53;37.48;101777.81;5176670;28;20426;-77
2022/08/07 11:30:59;;;;;;;0.20;0.20;;;;;;;21.50;37.18;101780.69;5169906;28;20094;-77
2022/08/07 11:33:56;;;;;;;2.08;0.63;;;;;;;21.63;38.07;101775.53;5179385;28;20044;-77
2022/08/07 11:36:58;;;;;;;0.20;0.20;;;;;;;21.78;37.17;101774.66;5188421;28;20038;-78
2022/08/07 11:39:58;;;;;;;0.17;0.17;;;;;;;21.75;37.67;101776.63;5189079;28;20041;-78
2022/08/07 11:42:44;;;;;;;0.20;0.20;;;;;;;21.79;37.28;101772.81;5186996;28;20044;-77
2022/08/07 11:45:33;;;;;;;0.20;0.20;;;;;;;21.84;37.45;101770.75;5198206;28;20133;-77
2022/08/07 11:48:19;;;;;;;0.20;0.20;;;;;;;21.90;36.56;101764.22;5197936;28;20045;-78
2022/08/07 11:51:08;;;;;;;0.20;0.20;;;;;;;22.23;35.29;101766.69;5199434;28;20037;-79
2022/08/07 11:53:56;;;;;;;0.30;0.30;;;;;;;22.30;34.86;101764.50;5162385;28;20103;-79
2022/08/07 11:56:49;;;;;;;0.30;0.30;;;;;;;22.56;33.83;101765.63;5213959;28;20038;-77
2022/08/07 11:59:51;;;;;;;0.20;0.20;;;;;;;22.36;35.99;101771.28;5176523;28;20018;-79
2022/08/07 12:02:58;;;;;;;0.10;0.10;;;;;;;22.35;36.22;101759.72;5194035;28;20081;-79
2022/08/07 12:05:35;;;;;;;0.20;0.20;;;;;;;22.40;36.07;101762.16;5195072;28;20041;-79
2022/08/07 12:08:29;;;;;;;0.20;0.20;;;;;;;22.55;35.49;101765.72;5197955;28;20038;-77
2022/08/07 12:11:15;;;;;;;9.23;1.35;;;;;;;22.57;35.95;101767.34;5203412;28;20045;-76
2022/08/07 12:13:50;;;;;;;0.20;0.20;;;;;;;22.75;33.08;101762.66;5192966;28;20045;-77
2022/08/07 12:16:28;;;;;;;0.40;0.40;;;;;;;22.76;34.80;101760.84;5157068;28;20046;-78
2022/08/07 12:19:20;;;;;;;0.50;0.50;;;;;;;22.82;34.32;101757.78;5179295;28;20033;-78
2022/08/07 12:22:06;;;;;;;0.22;0.22;;;;;;;23.08;32.75;101758.81;5173881;28;20045;-78